sensor_id;sensor_type;location;lat;lon;timestamp;pressure;altitude;pressure_sealevel;temperature;humidity
33697;BME280;20031;43.416;23.232;2023-02-18T00:02:05;100672.09;;;4.64;63.98
33697;BME280;20031;43.416;23.232;2023-02-18T00:04:31;100689.34;;;4.63;63.96
33697;BME280;20031;43.416;23.232;2023-02-18T00:06:56;100684.41;;;4.60;63.92
33697;BME280;20031;43.416;23.232;2023-02-18T00:09:22;100692.53;;;4.54;64.95
33697;BME280;20031;43.416;23.232;2023-02-18T00:11:48;100690.38;;;4.49;65.58
33697;BME280;20031;43.416;23.232;2023-02-18T00:14:14;100685.44;;;4.46;65.83
33697;BME280;20031;43.416;23.232;2023-02-18T00:16:41;100688.13;;;4.44;66.07
33697;BME280;20031;43.416;23.232;2023-02-18T00:19:09;100677.81;;;4.44;66.11
33697;BME280;20031;43.416;23.232;2023-02-18T00:21:36;100684.94;;;4.41;66.63
33697;BME280;20031;43.416;23.232;2023-02-18T00:24:03;100679.88;;;4.39;66.96
33697;BME280;20031;43.416;23.232;2023-02-18T00:26:29;100673.28;;;4.35;68.01
33697;BME280;20031;43.416;23.232;2023-02-18T00:28:54;100675.97;;;4.34;68.46
33697;BME280;20031;43.416;23.232;2023-02-18T00:31:26;100675.97;;;4.34;68.72
33697;BME280;20031;43.416;23.232;2023-02-18T00:33:52;100672.66;;;4.32;68.64
33697;BME280;20031;43.416;23.232;2023-02-18T00:36:19;100672.75;;;4.30;68.88
33697;BME280;20031;43.416;23.232;2023-02-18T00:38:50;100664.09;;;4.31;68.50
33697;BME280;20031;43.416;23.232;2023-02-18T00:41:16;100652.03;;;4.32;68.29
33697;BME280;20031;43.416;23.232;2023-02-18T00:43:42;100668.22;;;4.34;68.30
33697;BME280;20031;43.416;23.232;2023-02-18T00:46:07;100667.28;;;4.35;67.91
33697;BME280;20031;43.416;23.232;2023-02-18T00:48:33;100652.66;;;4.35;67.70
33697;BME280;20031;43.416;23.232;2023-02-18T00:51:00;100649.97;;;4.37;67.52
33697;BME280;20031;43.416;23.232;2023-02-18T00:53:27;100658.19;;;4.42;67.18
33697;BME280;20031;43.416;23.232;2023-02-18T00:55:52;100644.41;;;4.43;67.24
33697;BME280;20031;43.416;23.232;2023-02-18T00:58:18;100639.25;;;4.43;67.40
33697;BME280;20031;43.416;23.232;2023-02-18T01:00:44;100632.41;;;4.42;67.23
33697;BME280;20031;43.416;23.232;2023-02-18T01:03:10;100654.22;;;4.38;67.27
33697;BME280;20031;43.416;23.232;2023-02-18T01:05:37;100644.00;;;4.36;67.00
33697;BME280;20031;43.416;23.232;2023-02-18T01:08:04;100641.50;;;4.35;67.03
33697;BME280;20031;43.416;23.232;2023-02-18T01:10:30;100643.28;;;4.34;67.06
33697;BME280;20031;43.416;23.232;2023-02-18T01:12:55;100643.38;;;4.33;67.20
33697;BME280;20031;43.416;23.232;2023-02-18T01:15:21;100636.56;;;4.32;66.75
33697;BME280;20031;43.416;23.232;2023-02-18T01:17:47;100646.06;;;4.31;67.48
33697;BME280;20031;43.416;23.232;2023-02-18T01:20:14;100632.47;;;4.29;67.53
33697;BME280;20031;43.416;23.232;2023-02-18T01:22:40;100635.34;;;4.25;67.65
33697;BME280;20031;43.416;23.232;2023-02-18T01:25:07;100627.69;;;4.23;67.71
33697;BME280;20031;43.416;23.232;2023-02-18T01:27:34;100634.03;;;4.19;68.50
33697;BME280;20031;43.416;23.232;2023-02-18T01:30:00;100628.97;;;4.18;68.22
33697;BME280;20031;43.416;23.232;2023-02-18T01:32:26;100636.06;;;4.14;68.74
33697;BME280;20031;43.416;23.232;2023-02-18T01:34:51;100620.72;;;4.13;68.44
33697;BME280;20031;43.416;23.232;2023-02-18T01:37:17;100615.78;;;4.10;69.35
33697;BME280;20031;43.416;23.232;2023-02-18T01:39:42;100616.59;;;4.10;69.02
33697;BME280;20031;43.416;23.232;2023-02-18T01:42:18;100607.13;;;4.11;68.89
33697;BME280;20031;43.416;23.232;2023-02-18T01:44:46;100611.44;;;4.10;68.90
33697;BME280;20031;43.416;23.232;2023-02-18T01:47:13;100612.28;;;4.11;68.46
33697;BME280;20031;43.416;23.232;2023-02-18T01:49:39;100605.34;;;4.11;68.83
33697;BME280;20031;43.416;23.232;2023-02-18T01:52:09;100607.84;;;4.13;68.36
33697;BME280;20031;43.416;23.232;2023-02-18T01:54:40;100606.91;;;4.14;68.86
33697;BME280;20031;43.416;23.232;2023-02-18T01:57:17;100605.25;;;4.13;68.48
33697;BME280;20031;43.416;23.232;2023-02-18T01:59:51;100605.25;;;4.13;68.49
33697;BME280;20031;43.416;23.232;2023-02-18T02:02:22;100610.63;;;4.10;68.75
33697;BME280;20031;43.416;23.232;2023-02-18T02:04:49;100604.66;;;4.09;69.16
33697;BME280;20031;43.416;23.232;2023-02-18T02:07:16;100620.22;;;4.08;69.14
33697;BME280;20031;43.416;23.232;2023-02-18T02:09:43;100616.19;;;4.04;68.49
33697;BME280;20031;43.416;23.232;2023-02-18T02:12:31;100617.00;;;4.04;69.33
33697;BME280;20031;43.416;23.232;2023-02-18T02:15:21;100614.75;;;4.00;68.97
33697;BME280;20031;43.416;23.232;2023-02-18T02:32:37;100582.38;;;3.84;69.95
33697;BME280;20031;43.416;23.232;2023-02-18T02:37:51;100586.50;;;3.99;70.27
33697;BME280;20031;43.416;23.232;2023-02-18T02:40:42;100598.16;;;4.04;70.17
33697;BME280;20031;43.416;23.232;2023-02-18T02:46:17;100599.72;;;3.94;69.59
33697;BME280;20031;43.416;23.232;2023-02-18T02:52:04;100585.28;;;3.79;69.40
33697;BME280;20031;43.416;23.232;2023-02-18T02:54:32;100593.94;;;3.78;69.02
33697;BME280;20031;43.416;23.232;2023-02-18T02:59:30;100595.59;;;3.92;69.86
33697;BME280;20031;43.416;23.232;2023-02-18T03:11:59;100568.13;;;4.28;69.51
33697;BME280;20031;43.416;23.232;2023-02-18T03:14:39;100557.06;;;4.38;68.80
33697;BME280;20031;43.416;23.232;2023-02-18T03:17:14;100570.94;;;4.48;68.84
33697;BME280;20031;43.416;23.232;2023-02-18T03:19:48;100564.53;;;4.54;68.42
33697;BME280;20031;43.416;23.232;2023-02-18T03:22:24;100566.91;;;4.56;68.84
33697;BME280;20031;43.416;23.232;2023-02-18T03:24:53;100561.41;;;4.61;68.38
33697;BME280;20031;43.416;23.232;2023-02-18T03:27:23;100554.28;;;4.64;68.34
33697;BME280;20031;43.416;23.232;2023-02-18T03:30:02;100545.38;;;4.68;68.50
33697;BME280;20031;43.416;23.232;2023-02-18T03:32:30;100548.59;;;4.72;68.60
33697;BME280;20031;43.416;23.232;2023-02-18T03:35:02;100544.03;;;4.75;68.79
33697;BME280;20031;43.416;23.232;2023-02-18T03:37:31;100560.13;;;4.79;69.05
33697;BME280;20031;43.416;23.232;2023-02-18T03:40:00;100548.03;;;4.79;69.08
33697;BME280;20031;43.416;23.232;2023-02-18T03:42:27;100554.00;;;4.80;68.69
33697;BME280;20031;43.416;23.232;2023-02-18T03:44:53;100552.97;;;4.82;68.55
33697;BME280;20031;43.416;23.232;2023-02-18T03:47:18;100567.28;;;4.86;67.59
33697;BME280;20031;43.416;23.232;2023-02-18T03:49:44;100557.78;;;4.87;68.05
33697;BME280;20031;43.416;23.232;2023-02-18T03:52:09;100555.94;;;4.89;67.34
33697;BME280;20031;43.416;23.232;2023-02-18T03:54:35;100570.34;;;4.91;68.08
33697;BME280;20031;43.416;23.232;2023-02-18T03:57:01;100578.81;;;4.93;67.76
33697;BME280;20031;43.416;23.232;2023-02-18T03:59:27;100566.41;;;4.98;67.81
33697;BME280;20031;43.416;23.232;2023-02-18T04:01:52;100574.44;;;5.06;67.80
33697;BME280;20031;43.416;23.232;2023-02-18T04:04:18;100583.81;;;5.07;67.29
33697;BME280;20031;43.416;23.232;2023-02-18T04:06:43;100578.56;;;5.08;67.16
33697;BME280;20031;43.416;23.232;2023-02-18T04:09:08;100586.19;;;5.10;67.22
33697;BME280;20031;43.416;23.232;2023-02-18T04:11:38;100587.69;;;5.12;66.78
33697;BME280;20031;43.416;23.232;2023-02-18T04:14:04;100594.41;;;5.15;67.01
33697;BME280;20031;43.416;23.232;2023-02-18T04:16:30;100595.94;;;5.17;66.88
33697;BME280;20031;43.416;23.232;2023-02-18T04:18:56;100598.41;;;5.19;66.88
33697;BME280;20031;43.416;23.232;2023-02-18T04:21:21;100599.00;;;5.22;66.56
33697;BME280;20031;43.416;23.232;2023-02-18T04:23:47;100596.63;;;5.19;66.26
33697;BME280;20031;43.416;23.232;2023-02-18T04:26:12;100589.84;;;5.18;66.18
33697;BME280;20031;43.416;23.232;2023-02-18T04:28:37;100611.31;;;5.19;66.52
33697;BME280;20031;43.416;23.232;2023-02-18T04:31:03;100608.34;;;5.12;66.21
33697;BME280;20031;43.416;23.232;2023-02-18T04:33:30;100604.56;;;5.05;66.29
33697;BME280;20031;43.416;23.232;2023-02-18T04:35:56;100595.53;;;5.00;66.30
33697;BME280;20031;43.416;23.232;2023-02-18T04:38:21;100577.75;;;4.96;67.08
33697;BME280;20031;43.416;23.232;2023-02-18T04:40:47;100587.03;;;4.98;67.01
33697;BME280;20031;43.416;23.232;2023-02-18T04:43:13;100586.13;;;4.99;67.15
33697;BME280;20031;43.416;23.232;2023-02-18T04:45:38;100589.03;;;4.95;66.84
33697;BME280;20031;43.416;23.232;2023-02-18T04:48:04;100575.28;;;4.94;67.04
33697;BME280;20031;43.416;23.232;2023-02-18T04:50:30;100570.97;;;4.95;67.22
33697;BME280;20031;43.416;23.232;2023-02-18T04:52:55;100564.28;;;4.92;66.99
33697;BME280;20031;43.416;23.232;2023-02-18T04:55:20;100559.34;;;4.89;67.03
33697;BME280;20031;43.416;23.232;2023-02-18T04:57:46;100560.25;;;4.88;67.26
33697;BME280;20031;43.416;23.232;2023-02-18T05:00:15;100549.25;;;4.86;67.52
33697;BME280;20031;43.416;23.232;2023-02-18T05:02:41;100544.53;;;4.80;67.51
33697;BME280;20031;43.416;23.232;2023-02-18T05:05:06;100550.63;;;4.79;67.77
33697;BME280;20031;43.416;23.232;2023-02-18T05:07:32;100536.28;;;4.75;67.65
33697;BME280;20031;43.416;23.232;2023-02-18T05:09:58;100525.75;;;4.78;68.26
33697;BME280;20031;43.416;23.232;2023-02-18T05:12:24;100521.31;;;4.80;68.17
33697;BME280;20031;43.416;23.232;2023-02-18T05:14:49;100521.09;;;4.83;68.18
33697;BME280;20031;43.416;23.232;2023-02-18T05:17:15;100534.69;;;4.85;68.51
33697;BME280;20031;43.416;23.232;2023-02-18T05:19:40;100532.91;;;4.86;68.34
33697;BME280;20031;43.416;23.232;2023-02-18T05:22:05;100535.41;;;4.87;68.33
33697;BME280;20031;43.416;23.232;2023-02-18T05:24:31;100539.84;;;4.85;67.97
33697;BME280;20031;43.416;23.232;2023-02-18T05:26:56;100538.91;;;4.86;68.22
33697;BME280;20031;43.416;23.232;2023-02-18T05:29:22;100536.22;;;4.88;68.43
33697;BME280;20031;43.416;23.232;2023-02-18T05:31:47;100540.47;;;4.89;68.42
33697;BME280;20031;43.416;23.232;2023-02-18T05:34:13;100539.50;;;4.90;67.96
33697;BME280;20031;43.416;23.232;2023-02-18T05:36:38;100551.59;;;4.89;68.55
33697;BME280;20031;43.416;23.232;2023-02-18T05:39:04;100540.34;;;4.90;68.58
33697;BME280;20031;43.416;23.232;2023-02-18T05:41:29;100539.38;;;4.91;68.38
33697;BME280;20031;43.416;23.232;2023-02-18T05:43:55;100545.50;;;4.90;68.24
33697;BME280;20031;43.416;23.232;2023-02-18T05:46:39;100538.59;;;4.91;68.67
33697;BME280;20031;43.416;23.232;2023-02-18T05:49:04;100536.69;;;4.93;68.41
33697;BME280;20031;43.416;23.232;2023-02-18T05:51:30;100542.47;;;4.96;68.48
33697;BME280;20031;43.416;23.232;2023-02-18T05:53:55;100536.06;;;5.02;68.54
33697;BME280;20031;43.416;23.232;2023-02-18T05:56:21;100538.28;;;5.06;68.48
33697;BME280;20031;43.416;23.232;2023-02-18T05:58:47;100536.19;;;5.11;68.83
33697;BME280;20031;43.416;23.232;2023-02-18T06:01:12;100543.59;;;5.15;68.82
33697;BME280;20031;43.416;23.232;2023-02-18T06:03:38;100543.28;;;5.20;69.14
33697;BME280;20031;43.416;23.232;2023-02-18T06:06:03;100542.69;;;5.27;68.97
33697;BME280;20031;43.416;23.232;2023-02-18T06:08:29;100543.78;;;5.36;69.24
33697;BME280;20031;43.416;23.232;2023-02-18T06:10:54;100530.16;;;5.45;69.16
33697;BME280;20031;43.416;23.232;2023-02-18T06:13:20;100538.41;;;5.50;69.20
33697;BME280;20031;43.416;23.232;2023-02-18T06:15:45;100533.94;;;5.52;68.52
33697;BME280;20031;43.416;23.232;2023-02-18T06:18:11;100533.59;;;5.56;69.13
33697;BME280;20031;43.416;23.232;2023-02-18T06:20:38;100521.06;;;5.62;68.57
33697;BME280;20031;43.416;23.232;2023-02-18T06:23:04;100525.75;;;5.68;68.86
33697;BME280;20031;43.416;23.232;2023-02-18T06:25:29;100524.47;;;5.74;68.77
33697;BME280;20031;43.416;23.232;2023-02-18T06:27:55;100519.31;;;5.85;68.75
33697;BME280;20031;43.416;23.232;2023-02-18T06:30:20;100520.84;;;5.98;68.77
33697;BME280;20031;43.416;23.232;2023-02-18T06:32:46;100509.06;;;6.16;68.70
33697;BME280;20031;43.416;23.232;2023-02-18T06:35:11;100509.28;;;6.35;68.68
33697;BME280;20031;43.416;23.232;2023-02-18T06:37:37;100512.19;;;6.52;68.33
33697;BME280;20031;43.416;23.232;2023-02-18T06:40:03;100507.66;;;6.65;67.22
33697;BME280;20031;43.416;23.232;2023-02-18T06:42:28;100511.53;;;6.70;67.45
33697;BME280;20031;43.416;23.232;2023-02-18T06:44:53;100508.91;;;6.81;67.22
33697;BME280;20031;43.416;23.232;2023-02-18T06:47:19;100507.78;;;6.95;67.14
33697;BME280;20031;43.416;23.232;2023-02-18T06:49:44;100505.97;;;7.06;66.32
33697;BME280;20031;43.416;23.232;2023-02-18T06:52:10;100500.84;;;7.15;66.28
33697;BME280;20031;43.416;23.232;2023-02-18T06:54:35;100504.63;;;7.32;65.83
33697;BME280;20031;43.416;23.232;2023-02-18T06:57:01;100507.84;;;7.45;65.36
33697;BME280;20031;43.416;23.232;2023-02-18T06:59:26;100511.25;;;7.65;65.63
33697;BME280;20031;43.416;23.232;2023-02-18T07:01:52;100509.31;;;7.88;64.31
33697;BME280;20031;43.416;23.232;2023-02-18T07:04:17;100513.69;;;7.97;64.29
33697;BME280;20031;43.416;23.232;2023-02-18T07:06:43;100517.81;;;7.99;63.85
33697;BME280;20031;43.416;23.232;2023-02-18T07:09:08;100520.50;;;8.18;62.90
33697;BME280;20031;43.416;23.232;2023-02-18T07:11:34;100520.41;;;8.38;62.79
33697;BME280;20031;43.416;23.232;2023-02-18T07:13:59;100519.94;;;8.72;61.82
33697;BME280;20031;43.416;23.232;2023-02-18T07:16:24;100515.84;;;8.98;61.16
33697;BME280;20031;43.416;23.232;2023-02-18T07:18:50;100509.81;;;9.07;59.73
33697;BME280;20031;43.416;23.232;2023-02-18T07:21:15;100525.91;;;9.11;59.44
33697;BME280;20031;43.416;23.232;2023-02-18T07:23:41;100527.28;;;9.24;59.03
33697;BME280;20031;43.416;23.232;2023-02-18T07:26:09;100529.47;;;9.28;58.35
33697;BME280;20031;43.416;23.232;2023-02-18T07:28:35;100531.66;;;9.33;58.04
33697;BME280;20031;43.416;23.232;2023-02-18T07:31:00;100530.81;;;9.42;57.72
33697;BME280;20031;43.416;23.232;2023-02-18T07:33:26;100534.78;;;9.46;57.96
33697;BME280;20031;43.416;23.232;2023-02-18T07:35:55;100524.78;;;9.51;57.76
33697;BME280;20031;43.416;23.232;2023-02-18T07:38:21;100522.72;;;9.54;57.54
33697;BME280;20031;43.416;23.232;2023-02-18T07:40:48;100535.28;;;9.59;57.99
33697;BME280;20031;43.416;23.232;2023-02-18T07:43:13;100533.69;;;9.58;57.30
33697;BME280;20031;43.416;23.232;2023-02-18T07:45:39;100542.81;;;9.62;57.74
33697;BME280;20031;43.416;23.232;2023-02-18T07:48:04;100533.50;;;9.68;57.43
33697;BME280;20031;43.416;23.232;2023-02-18T07:50:30;100545.25;;;9.82;57.15
33697;BME280;20031;43.416;23.232;2023-02-18T07:53:00;100540.13;;;9.90;56.89
33697;BME280;20031;43.416;23.232;2023-02-18T07:55:26;100536.03;;;9.97;57.02
33697;BME280;20031;43.416;23.232;2023-02-18T07:58:16;100540.13;;;9.99;56.96
33697;BME280;20031;43.416;23.232;2023-02-18T08:00:41;100534.50;;;10.04;56.73
33697;BME280;20031;43.416;23.232;2023-02-18T08:03:07;100530.50;;;10.09;56.69
33697;BME280;20031;43.416;23.232;2023-02-18T08:05:32;100533.63;;;10.13;56.80
33697;BME280;20031;43.416;23.232;2023-02-18T08:07:58;100541.03;;;10.17;56.33
33697;BME280;20031;43.416;23.232;2023-02-18T08:10:23;100545.09;;;10.19;56.29
33697;BME280;20031;43.416;23.232;2023-02-18T08:12:49;100538.06;;;10.29;56.11
33697;BME280;20031;43.416;23.232;2023-02-18T08:15:14;100538.03;;;10.39;55.79
33697;BME280;20031;43.416;23.232;2023-02-18T08:17:40;100535.38;;;10.48;55.59
33697;BME280;20031;43.416;23.232;2023-02-18T08:20:06;100534.66;;;10.56;55.12
33697;BME280;20031;43.416;23.232;2023-02-18T08:22:32;100532.50;;;10.68;55.17
33697;BME280;20031;43.416;23.232;2023-02-18T08:24:57;100529.69;;;10.79;54.42
33697;BME280;20031;43.416;23.232;2023-02-18T08:27:23;100533.41;;;10.94;54.21
33697;BME280;20031;43.416;23.232;2023-02-18T08:29:48;100534.06;;;11.14;53.77
33697;BME280;20031;43.416;23.232;2023-02-18T08:32:14;100524.44;;;11.31;53.32
33697;BME280;20031;43.416;23.232;2023-02-18T08:34:39;100531.28;;;11.50;53.45
33697;BME280;20031;43.416;23.232;2023-02-18T08:37:05;100525.03;;;11.68;52.79
33697;BME280;20031;43.416;23.232;2023-02-18T08:39:34;100527.16;;;11.98;52.65
33697;BME280;20031;43.416;23.232;2023-02-18T08:42:00;100520.19;;;12.47;51.75
33697;BME280;20031;43.416;23.232;2023-02-18T08:44:26;100522.28;;;12.85;50.78
33697;BME280;20031;43.416;23.232;2023-02-18T08:46:52;100522.47;;;13.15;49.58
33697;BME280;20031;43.416;23.232;2023-02-18T08:49:17;100531.63;;;13.19;47.63
33697;BME280;20031;43.416;23.232;2023-02-18T08:51:46;100529.97;;;13.18;45.81
33697;BME280;20031;43.416;23.232;2023-02-18T08:54:11;100524.75;;;13.10;45.45
33697;BME280;20031;43.416;23.232;2023-02-18T08:56:37;100527.16;;;12.96;46.16
33697;BME280;20031;43.416;23.232;2023-02-18T08:59:03;100545.81;;;12.85;46.64
33697;BME280;20031;43.416;23.232;2023-02-18T09:01:29;100552.25;;;12.73;47.31
33697;BME280;20031;43.416;23.232;2023-02-18T09:03:54;100549.13;;;12.62;48.08
33697;BME280;20031;43.416;23.232;2023-02-18T09:06:19;100545.88;;;12.60;48.35
33697;BME280;20031;43.416;23.232;2023-02-18T09:08:45;100551.09;;;12.60;49.09
33697;BME280;20031;43.416;23.232;2023-02-18T09:11:11;100543.59;;;12.65;49.92
33697;BME280;20031;43.416;23.232;2023-02-18T09:13:36;100548.69;;;12.74;49.77
33697;BME280;20031;43.416;23.232;2023-02-18T09:16:05;100539.41;;;12.87;49.88
33697;BME280;20031;43.416;23.232;2023-02-18T09:18:33;100543.38;;;12.99;49.69
33697;BME280;20031;43.416;23.232;2023-02-18T09:21:02;100545.50;;;13.20;49.17
33697;BME280;20031;43.416;23.232;2023-02-18T09:23:29;100546.00;;;13.39;48.92
33697;BME280;20031;43.416;23.232;2023-02-18T09:25:55;100537.97;;;13.56;48.59
33697;BME280;20031;43.416;23.232;2023-02-18T09:28:21;100538.59;;;13.66;48.57
33697;BME280;20031;43.416;23.232;2023-02-18T09:30:47;100548.25;;;13.74;48.53
33697;BME280;20031;43.416;23.232;2023-02-18T09:33:12;100538.56;;;13.82;48.23
33697;BME280;20031;43.416;23.232;2023-02-18T09:35:42;100539.38;;;13.90;48.25
33697;BME280;20031;43.416;23.232;2023-02-18T09:38:09;100538.34;;;13.99;48.32
33697;BME280;20031;43.416;23.232;2023-02-18T09:40:37;100539.34;;;14.14;48.05
33697;BME280;20031;43.416;23.232;2023-02-18T09:43:04;100533.34;;;14.36;47.63
33697;BME280;20031;43.416;23.232;2023-02-18T09:45:31;100533.41;;;14.58;47.01
33697;BME280;20031;43.416;23.232;2023-02-18T09:47:57;100529.38;;;15.00;45.40
33697;BME280;20031;43.416;23.232;2023-02-18T09:50:26;100511.81;;;15.45;44.03
33697;BME280;20031;43.416;23.232;2023-02-18T09:52:53;100516.19;;;15.67;42.61
33697;BME280;20031;43.416;23.232;2023-02-18T09:55:26;100520.72;;;15.87;41.49
33697;BME280;20031;43.416;23.232;2023-02-18T09:58:01;100520.81;;;16.08;40.36
33697;BME280;20031;43.416;23.232;2023-02-18T10:00:35;100523.28;;;16.24;39.21
33697;BME280;20031;43.416;23.232;2023-02-18T10:03:10;100513.94;;;16.36;38.94
33697;BME280;20031;43.416;23.232;2023-02-18T10:05:40;100521.09;;;16.42;38.38
33697;BME280;20031;43.416;23.232;2023-02-18T10:08:31;100513.53;;;16.53;36.23
33697;BME280;20031;43.416;23.232;2023-02-18T10:10:58;100507.97;;;16.63;35.52
33697;BME280;20031;43.416;23.232;2023-02-18T10:13:26;100513.41;;;16.76;34.72
33697;BME280;20031;43.416;23.232;2023-02-18T10:15:52;100505.00;;;16.86;34.62
33697;BME280;20031;43.416;23.232;2023-02-18T10:18:28;100515.41;;;16.94;34.66
33697;BME280;20031;43.416;23.232;2023-02-18T10:21:14;100501.50;;;17.00;34.60
33697;BME280;20031;43.416;23.232;2023-02-18T10:26:52;100504.03;;;17.15;33.77
33697;BME280;20031;43.416;23.232;2023-02-18T10:29:19;100499.03;;;17.20;33.72
33697;BME280;20031;43.416;23.232;2023-02-18T10:31:56;100489.97;;;17.22;34.22
33697;BME280;20031;43.416;23.232;2023-02-18T10:34:36;100487.19;;;17.30;33.84
33697;BME280;20031;43.416;23.232;2023-02-18T10:40:08;100488.94;;;17.44;33.67
33697;BME280;20031;43.416;23.232;2023-02-18T10:50:44;100464.88;;;17.53;33.93
33697;BME280;20031;43.416;23.232;2023-02-18T10:53:29;100463.31;;;17.59;34.08
33697;BME280;20031;43.416;23.232;2023-02-18T10:55:56;100459.53;;;17.68;34.30
33697;BME280;20031;43.416;23.232;2023-02-18T10:58:30;100456.72;;;17.76;33.72
33697;BME280;20031;43.416;23.232;2023-02-18T11:00:57;100450.47;;;17.83;34.06
33697;BME280;20031;43.416;23.232;2023-02-18T11:03:49;100460.88;;;17.91;33.21
33697;BME280;20031;43.416;23.232;2023-02-18T11:06:23;100456.66;;;18.03;33.12
33697;BME280;20031;43.416;23.232;2023-02-18T11:08:52;100456.09;;;18.07;33.88
33697;BME280;20031;43.416;23.232;2023-02-18T11:11:25;100446.44;;;18.21;33.48
33697;BME280;20031;43.416;23.232;2023-02-18T11:13:56;100445.47;;;18.35;33.13
33697;BME280;20031;43.416;23.232;2023-02-18T11:16:23;100445.28;;;18.42;33.30
33697;BME280;20031;43.416;23.232;2023-02-18T11:19:00;100450.13;;;18.39;33.42
33697;BME280;20031;43.416;23.232;2023-02-18T11:21:37;100451.16;;;18.38;33.16
33697;BME280;20031;43.416;23.232;2023-02-18T11:24:14;100443.47;;;18.43;32.79
33697;BME280;20031;43.416;23.232;2023-02-18T11:26:41;100445.66;;;18.40;32.31
33697;BME280;20031;43.416;23.232;2023-02-18T11:29:20;100434.50;;;18.38;32.17
33697;BME280;20031;43.416;23.232;2023-02-18T11:31:49;100430.66;;;18.34;32.05
33697;BME280;20031;43.416;23.232;2023-02-18T11:34:19;100420.09;;;18.34;32.07
33697;BME280;20031;43.416;23.232;2023-02-18T11:36:47;100426.38;;;18.33;31.80
33697;BME280;20031;43.416;23.232;2023-02-18T11:39:25;100425.81;;;18.43;31.79
33697;BME280;20031;43.416;23.232;2023-02-18T11:42:03;100428.88;;;18.66;32.07
33697;BME280;20031;43.416;23.232;2023-02-18T11:47:20;100418.00;;;19.08;31.00
33697;BME280;20031;43.416;23.232;2023-02-18T11:50:14;100418.19;;;19.13;30.97
33697;BME280;20031;43.416;23.232;2023-02-18T11:52:45;100424.06;;;19.21;31.42
33697;BME280;20031;43.416;23.232;2023-02-18T11:57:45;100421.59;;;19.45;30.59
33697;BME280;20031;43.416;23.232;2023-02-18T12:09:00;100400.66;;;19.50;30.10
33697;BME280;20031;43.416;23.232;2023-02-18T12:11:33;100390.06;;;19.63;29.85
33697;BME280;20031;43.416;23.232;2023-02-18T12:14:00;100387.16;;;19.71;29.64
33697;BME280;20031;43.416;23.232;2023-02-18T12:16:33;100388.22;;;19.70;29.88
33697;BME280;20031;43.416;23.232;2023-02-18T12:27:43;100384.88;;;19.05;31.11
33697;BME280;20031;43.416;23.232;2023-02-18T12:33:33;100392.16;;;18.91;31.63
33697;BME280;20031;43.416;23.232;2023-02-18T12:39:02;100386.06;;;18.84;31.80
33697;BME280;20031;43.416;23.232;2023-02-18T12:52:37;100375.06;;;18.35;32.52
33697;BME280;20031;43.416;23.232;2023-02-18T13:01:03;100370.50;;;18.10;32.66
33697;BME280;20031;43.416;23.232;2023-02-18T13:06:45;100371.66;;;17.94;33.08
33697;BME280;20031;43.416;23.232;2023-02-18T13:14:33;100375.28;;;17.81;33.57
33697;BME280;20031;43.416;23.232;2023-02-18T13:17:01;100368.38;;;17.80;33.99
33697;BME280;20031;43.416;23.232;2023-02-18T13:19:32;100376.66;;;17.77;34.07
33697;BME280;20031;43.416;23.232;2023-02-18T13:22:05;100375.22;;;17.74;33.80
33697;BME280;20031;43.416;23.232;2023-02-18T13:24:39;100371.41;;;17.77;34.03
33697;BME280;20031;43.416;23.232;2023-02-18T13:27:15;100371.41;;;17.77;33.92
33697;BME280;20031;43.416;23.232;2023-02-18T13:40:33;100370.06;;;17.93;33.89
33697;BME280;20031;43.416;23.232;2023-02-18T13:43:31;100386.28;;;17.97;33.27
33697;BME280;20031;43.416;23.232;2023-02-18T13:48:35;100369.84;;;18.01;33.43
33697;BME280;20031;43.416;23.232;2023-02-18T13:51:05;100369.06;;;18.01;33.42
33697;BME280;20031;43.416;23.232;2023-02-18T13:53:35;100370.88;;;18.00;33.61
33697;BME280;20031;43.416;23.232;2023-02-18T13:56:49;100367.63;;;17.98;33.58
33697;BME280;20031;43.416;23.232;2023-02-18T13:58:51;100368.84;;;17.96;33.73
33697;BME280;20031;43.416;23.232;2023-02-18T14:01:22;100362.75;;;17.95;33.32
33697;BME280;20031;43.416;23.232;2023-02-18T14:03:52;100353.19;;;17.94;33.73
33697;BME280;20031;43.416;23.232;2023-02-18T14:06:32;100363.19;;;17.99;33.94
33697;BME280;20031;43.416;23.232;2023-02-18T14:12:14;100358.34;;;18.09;34.00
33697;BME280;20031;43.416;23.232;2023-02-18T14:14:40;100348.19;;;18.12;33.90
33697;BME280;20031;43.416;23.232;2023-02-18T14:17:37;100354.09;;;18.14;34.00
33697;BME280;20031;43.416;23.232;2023-02-18T14:27:36;100328.50;;;18.08;34.35
33697;BME280;20031;43.416;23.232;2023-02-18T14:30:07;100330.94;;;18.03;34.89
33697;BME280;20031;43.416;23.232;2023-02-18T14:32:40;100339.03;;;17.95;34.68
33697;BME280;20031;43.416;23.232;2023-02-18T14:38:13;100324.22;;;17.88;34.85
33697;BME280;20031;43.416;23.232;2023-02-18T14:41:18;100319.34;;;17.91;35.21
33697;BME280;20031;43.416;23.232;2023-02-18T14:46:17;100311.03;;;17.88;35.53
33697;BME280;20031;43.416;23.232;2023-02-18T14:48:57;100312.63;;;17.83;35.82
33697;BME280;20031;43.416;23.232;2023-02-18T14:51:31;100310.34;;;17.73;35.83
33697;BME280;20031;43.416;23.232;2023-02-18T14:54:04;100310.97;;;17.69;36.60
33697;BME280;20031;43.416;23.232;2023-02-18T14:56:31;100309.91;;;17.63;36.42
33697;BME280;20031;43.416;23.232;2023-02-18T14:59:02;100308.91;;;17.58;36.10
33697;BME280;20031;43.416;23.232;2023-02-18T15:01:32;100323.63;;;17.46;36.37
33697;BME280;20031;43.416;23.232;2023-02-18T15:03:57;100320.94;;;17.33;36.60
33697;BME280;20031;43.416;23.232;2023-02-18T15:08:57;100327.00;;;17.06;37.19
33697;BME280;20031;43.416;23.232;2023-02-18T15:11:28;100326.75;;;16.95;37.13